createdAt,value
2019-04-23T00:01:23.840Z,3.80
2019-04-23T00:03:51.650Z,4.22
2019-04-23T00:06:43.903Z,3.75
2019-04-23T00:09:12.474Z,4.20
2019-04-23T00:11:41.520Z,4.55
2019-04-23T00:14:20.356Z,4.00
2019-04-23T00:16:50.924Z,4.40
2019-04-23T00:19:24.842Z,4.00
2019-04-23T00:22:16.705Z,3.72
2019-04-23T00:27:35.800Z,4.72
2019-04-23T00:30:00.982Z,4.50
2019-04-23T00:32:42.642Z,4.75
2019-04-23T00:35:23.597Z,5.17
2019-04-23T00:37:55.075Z,4.78
2019-04-23T00:43:15.443Z,4.33
2019-04-23T00:45:47.001Z,4.92
2019-04-23T00:48:28.008Z,5.45
2019-04-23T00:50:54.307Z,4.83
2019-04-23T00:53:43.786Z,4.72
2019-04-23T00:56:25.015Z,5.62
2019-04-23T01:01:19.685Z,5.15
2019-04-23T01:03:53.163Z,5.05
2019-04-23T01:06:27.180Z,5.58
2019-04-23T01:09:03.863Z,5.37
2019-04-23T01:11:39.380Z,5.55
2019-04-23T01:14:14.817Z,6.53
2019-04-23T01:16:42.534Z,5.75
2019-04-23T01:22:02.262Z,5.42
2019-04-23T01:25:03.094Z,6.22
2019-04-23T01:28:09.390Z,6.67
2019-04-23T01:30:46.882Z,6.20
2019-04-23T01:33:27.155Z,5.78
2019-04-23T01:36:12.446Z,5.83
2019-04-23T01:38:37.518Z,6.33
2019-04-23T01:41:09.698Z,6.10
2019-04-23T01:43:42.192Z,7.15
2019-04-23T01:46:12.868Z,6.65
2019-04-23T01:48:51.883Z,5.22
2019-04-23T01:51:34.416Z,5.60
2019-04-23T01:54:01.788Z,5.67
2019-04-23T01:56:34.062Z,7.58
2019-04-23T01:59:14.107Z,7.08
2019-04-23T02:04:25.005Z,6.67
2019-04-23T02:06:59.291Z,6.58
2019-04-23T02:09:58.979Z,6.95
2019-04-23T02:12:11.497Z,7.25
2019-04-23T02:14:51.577Z,8.05
2019-04-23T02:17:25.467Z,6.03
2019-04-23T02:20:05.052Z,7.00
2019-04-23T02:22:52.356Z,6.47
2019-04-23T02:25:31.698Z,6.28
2019-04-23T02:33:29.852Z,8.20
2019-04-23T02:35:55.921Z,7.10
2019-04-23T02:38:35.961Z,7.87
2019-04-23T02:43:56.306Z,8.45
2019-04-23T02:46:05.539Z,8.55
2019-04-23T02:54:10.191Z,9.93
2019-04-23T02:59:14.492Z,9.05
2019-04-23T03:04:35.725Z,9.08
2019-04-23T03:06:56.813Z,8.55
2019-04-23T03:09:36.773Z,8.15
2019-04-23T03:12:08.247Z,9.03
2019-04-23T03:14:41.720Z,8.75
2019-04-23T03:17:27.192Z,7.70
2019-04-23T03:20:21.873Z,8.28
2019-04-23T03:25:46.030Z,8.65
2019-04-23T03:28:49.362Z,8.63
2019-04-23T03:32:47.391Z,8.63
2019-04-23T03:43:46.917Z,9.83
2019-04-23T03:46:41.670Z,9.68
2019-04-23T03:48:57.469Z,9.88
2019-04-23T03:51:43.471Z,10.10
2019-04-23T03:57:12.558Z,9.53
2019-04-23T03:59:36.914Z,9.93
2019-04-23T04:02:20.889Z,10.85
2019-04-23T04:07:18.552Z,9.60
2019-04-23T04:09:47.856Z,10.15
2019-04-23T04:15:16.523Z,10.10
2019-04-23T04:18:03.990Z,10.75
2019-04-23T04:20:15.291Z,10.82
2019-04-23T04:25:37.456Z,10.88
2019-04-23T04:30:37.945Z,11.88
2019-04-23T04:33:38.608Z,11.85
2019-04-23T04:41:13.530Z,11.55
2019-04-23T04:43:55.857Z,11.73
2019-04-23T04:48:58.847Z,11.88
2019-04-23T04:54:12.354Z,12.85
2019-04-23T04:56:45.046Z,12.50
2019-04-23T05:04:30.636Z,11.40
2019-04-23T05:09:57.271Z,12.60
2019-04-23T05:14:52.639Z,12.40
2019-04-23T05:17:57.223Z,12.93
2019-04-23T05:20:19.990Z,12.98
2019-04-23T05:25:25.446Z,12.45
2019-04-23T05:28:08.127Z,13.53
2019-04-23T05:30:44.506Z,12.80
2019-04-23T05:33:18.549Z,13.15
2019-04-23T05:38:39.012Z,13.13
2019-04-23T05:41:10.063Z,12.33
2019-04-23T05:43:43.605Z,12.80
2019-04-23T05:46:17.571Z,12.78
2019-04-23T05:48:49.034Z,14.07
2019-04-23T05:56:36.871Z,12.50
2019-04-23T06:09:25.155Z,12.58
2019-04-23T06:12:00.118Z,11.83
2019-04-23T06:14:44.494Z,12.43
2019-04-23T06:17:15.228Z,12.47
2019-04-23T06:19:49.766Z,12.35
2019-04-23T06:22:30.025Z,13.43
2019-04-23T06:25:04.185Z,13.35
2019-04-23T06:27:41.481Z,11.90
2019-04-23T06:30:34.316Z,12.68
2019-04-23T06:32:46.441Z,14.55
2019-04-23T06:35:24.160Z,12.33
2019-04-23T06:40:38.863Z,11.60
2019-04-23T06:45:46.002Z,12.47
2019-04-23T06:51:07.523Z,12.40
2019-04-23T06:53:29.283Z,10.53
2019-04-23T06:56:18.688Z,11.57
2019-04-23T06:58:43.200Z,12.70
2019-04-23T07:01:19.120Z,11.70
2019-04-23T07:04:02.983Z,11.33
2019-04-23T07:06:38.440Z,11.10
2019-04-23T07:09:10.736Z,10.63
2019-04-23T07:11:39.396Z,10.57
2019-04-23T07:14:12.025Z,11.47
2019-04-23T07:16:52.634Z,10.85
2019-04-23T07:19:31.770Z,10.88
2019-04-23T07:22:08.110Z,11.03
2019-04-23T07:24:36.587Z,11.55
2019-04-23T07:27:14.849Z,12.18
2019-04-23T07:32:28.934Z,11.88
2019-04-23T07:35:08.988Z,11.88
2019-04-23T07:37:56.873Z,11.75
2019-04-23T07:43:28.256Z,12.35
2019-04-23T07:46:16.834Z,11.83
2019-04-23T07:48:43.792Z,11.08
2019-04-23T07:51:22.909Z,11.33
2019-04-23T07:54:03.773Z,11.00
2019-04-23T07:56:34.242Z,11.60
2019-04-23T07:59:08.857Z,11.48
2019-04-23T08:01:42.257Z,12.43
2019-04-23T08:04:18.327Z,12.00
2019-04-23T08:06:52.620Z,11.25
2019-04-23T08:09:27.671Z,12.20
2019-04-23T08:12:02.645Z,13.25
2019-04-23T08:14:43.914Z,12.58
2019-04-23T08:17:12.594Z,11.15
2019-04-23T08:19:56.352Z,13.10
2019-04-23T08:22:26.970Z,12.98
2019-04-23T08:25:29.934Z,11.75
2019-04-23T08:27:55.894Z,11.50
2019-04-23T08:30:32.249Z,13.00
2019-04-23T08:33:24.485Z,12.00
2019-04-23T08:35:54.303Z,11.22
2019-04-23T08:38:26.593Z,13.58
2019-04-23T08:41:02.629Z,14.07
2019-04-23T08:46:43.370Z,12.55
2019-04-23T08:49:10.821Z,12.33
2019-04-23T08:51:53.334Z,11.08
2019-04-23T08:54:27.953Z,13.18
2019-04-23T09:02:24.216Z,13.03
2019-04-23T09:04:50.273Z,12.47
2019-04-23T09:07:33.632Z,13.87
2019-04-23T09:10:02.480Z,12.83
2019-04-23T09:12:32.106Z,13.17
2019-04-23T09:15:13.488Z,12.37
2019-04-23T09:17:42.872Z,12.57
2019-04-23T09:22:49.978Z,13.97
2019-04-23T09:25:28.440Z,12.30
2019-04-23T09:28:01.860Z,11.70
2019-04-23T09:30:32.273Z,13.07
2019-04-23T09:36:37.832Z,12.67
2019-04-23T09:39:12.825Z,11.80
2019-04-23T09:41:51.790Z,12.50
2019-04-23T09:45:03.740Z,11.60
2019-04-23T09:47:53.500Z,11.93
2019-04-23T09:50:24.085Z,12.93
2019-04-23T09:53:57.781Z,13.20
2019-04-23T09:58:07.939Z,13.30
2019-04-23T10:00:44.885Z,12.47
2019-04-23T10:03:16.662Z,11.73
2019-04-23T10:05:45.088Z,12.47
2019-04-23T10:08:16.212Z,11.00
2019-04-23T10:10:44.962Z,12.77
2019-04-23T10:13:19.980Z,14.37
2019-04-23T10:15:53.922Z,14.17
2019-04-23T10:18:29.128Z,13.33
2019-04-23T10:21:03.360Z,11.80
2019-04-23T10:23:37.172Z,12.70
2019-04-23T10:26:12.136Z,12.83
2019-04-23T10:28:49.803Z,13.07
2019-04-23T10:31:23.079Z,15.10
2019-04-23T10:33:57.982Z,12.63
2019-04-23T10:36:38.264Z,11.77
2019-04-23T10:39:14.653Z,11.57
2019-04-23T10:41:46.393Z,12.20
2019-04-23T10:44:35.354Z,13.90
2019-04-23T10:47:54.416Z,11.00
2019-04-23T10:58:35.134Z,11.40
2019-04-23T11:04:02.825Z,11.13
2019-04-23T11:06:25.321Z,11.83
2019-04-23T11:09:07.908Z,11.83
2019-04-23T11:11:34.420Z,11.20
2019-04-23T11:14:23.071Z,13.23
2019-04-23T11:16:57.300Z,13.77
2019-04-23T11:19:25.595Z,11.70
2019-04-23T11:22:04.254Z,11.70
2019-04-23T11:24:41.654Z,11.90
2019-04-23T11:27:20.793Z,10.80
2019-04-23T11:32:44.771Z,10.77
2019-04-23T11:35:18.079Z,10.03
2019-04-23T11:37:43.421Z,10.87
2019-04-23T11:40:13.683Z,10.70
2019-04-23T11:42:42.719Z,11.07
2019-04-23T11:45:30.610Z,12.50
2019-04-23T11:53:00.287Z,11.20
2019-04-23T11:58:30.524Z,11.37
2019-04-23T12:01:28.213Z,11.00
2019-04-23T12:04:13.989Z,10.50
2019-04-23T12:06:49.017Z,11.37
2019-04-23T12:09:38.214Z,11.97
2019-04-23T12:12:03.827Z,10.07
2019-04-23T12:22:30.080Z,9.93
2019-04-23T12:25:17.663Z,10.33
2019-04-23T12:30:18.976Z,10.00
2019-04-23T12:32:57.188Z,10.63
2019-04-23T12:35:33.973Z,12.60
2019-04-23T12:38:07.402Z,11.43
2019-04-23T12:40:40.532Z,10.70
2019-04-23T12:43:18.308Z,10.43
2019-04-23T12:45:47.041Z,11.03
2019-04-23T12:48:42.110Z,10.87
2019-04-23T12:51:14.236Z,10.07
2019-04-23T12:53:37.888Z,10.50
2019-04-23T12:56:17.006Z,9.97
2019-04-23T12:58:38.361Z,10.37
2019-04-23T13:01:22.852Z,10.00
2019-04-23T13:03:50.536Z,10.73
2019-04-23T13:06:28.339Z,10.30
2019-04-23T13:09:23.177Z,11.20
2019-04-23T13:11:49.691Z,11.13
2019-04-23T13:14:26.463Z,10.97
2019-04-23T13:17:27.084Z,11.37
2019-04-23T13:22:21.469Z,10.77
2019-04-23T13:27:54.254Z,8.20
2019-04-23T13:30:37.465Z,11.30
2019-04-23T13:33:08.120Z,11.93
2019-04-23T13:36:03.174Z,9.97
2019-04-23T13:43:37.973Z,10.77
2019-04-23T13:48:30.100Z,10.30
2019-04-23T13:51:21.287Z,11.23
2019-04-23T13:53:55.748Z,9.17
2019-04-23T14:01:58.011Z,10.27
2019-04-23T14:04:32.834Z,11.63
2019-04-23T14:06:57.882Z,13.20
2019-04-23T14:09:45.484Z,10.63
2019-04-23T14:12:09.155Z,10.27
2019-04-23T14:15:04.479Z,10.30
2019-04-23T14:20:05.010Z,12.00
2019-04-23T14:25:13.855Z,9.30
2019-04-23T14:27:51.601Z,9.97
2019-04-23T14:33:00.951Z,10.13
2019-04-23T14:35:33.176Z,9.70
2019-04-23T14:40:54.124Z,9.00
2019-04-23T14:43:34.897Z,9.53
2019-04-23T14:48:33.026Z,10.40
2019-04-23T14:51:13.372Z,11.67
2019-04-23T14:53:46.500Z,10.23
2019-04-23T14:56:24.034Z,10.57
2019-04-23T15:01:36.177Z,10.20
2019-04-23T15:04:04.849Z,9.43
2019-04-23T15:07:04.128Z,9.57
2019-04-23T15:09:30.934Z,10.07
2019-04-23T15:12:11.786Z,9.87
2019-04-23T15:14:48.197Z,10.97
2019-04-23T15:17:12.825Z,9.20
2019-04-23T15:19:57.973Z,10.33
2019-04-23T15:22:32.453Z,9.80
2019-04-23T15:25:13.772Z,10.03
2019-04-23T15:30:03.690Z,9.73
2019-04-23T15:32:53.858Z,10.33
2019-04-23T15:35:33.218Z,9.50
2019-04-23T15:38:18.547Z,10.00
2019-04-23T15:40:32.983Z,9.67
2019-04-23T15:43:09.061Z,10.07
2019-04-23T15:45:44.537Z,10.70
2019-04-23T15:48:26.569Z,9.93
2019-04-23T15:51:04.647Z,10.93
2019-04-23T15:53:24.914Z,10.33
2019-04-23T15:56:24.755Z,11.00
2019-04-23T15:58:56.168Z,11.97
2019-04-23T16:01:29.042Z,11.80
2019-04-23T16:03:29.307Z,11.33
2019-04-23T16:06:02.661Z,10.83
2019-04-23T16:11:48.005Z,11.40
2019-04-23T16:19:56.766Z,10.90
2019-04-23T16:22:25.135Z,12.50
2019-04-23T16:27:31.692Z,13.30
2019-04-23T16:30:17.804Z,10.90
2019-04-23T16:33:08.752Z,11.27
2019-04-23T16:36:11.417Z,12.80
2019-04-23T16:38:54.503Z,12.70
2019-04-23T16:43:57.150Z,10.70
2019-04-23T16:46:50.317Z,11.97
2019-04-23T16:49:15.225Z,11.60
2019-04-23T16:51:39.729Z,11.37
2019-04-23T16:57:13.190Z,11.40
2019-04-23T16:59:34.873Z,11.67
2019-04-23T17:02:12.312Z,10.33
2019-04-23T17:04:38.876Z,11.50
2019-04-23T17:07:13.222Z,12.00
2019-04-23T17:10:00.328Z,11.80
2019-04-23T17:12:17.593Z,12.77
2019-04-23T17:15:17.891Z,12.30
2019-04-23T17:17:33.964Z,12.67
2019-04-23T17:20:25.249Z,13.10
2019-04-23T17:22:47.578Z,11.93
2019-04-23T17:25:26.456Z,12.63
2019-04-23T17:28:05.630Z,12.57
2019-04-23T17:30:33.680Z,12.30
2019-04-23T17:33:19.104Z,12.13
2019-04-23T17:38:50.992Z,12.33
2019-04-23T17:41:50.181Z,12.60
2019-04-23T17:44:37.112Z,12.93
2019-04-23T17:46:54.064Z,14.93
2019-04-23T17:49:29.963Z,13.93
2019-04-23T17:52:05.404Z,14.13
2019-04-23T17:54:43.382Z,14.53
2019-04-23T17:57:15.642Z,14.43
2019-04-23T18:00:08.684Z,13.50
2019-04-23T18:02:49.921Z,14.20
2019-04-23T18:05:06.267Z,15.43
2019-04-23T18:10:29.751Z,14.77
2019-04-23T18:12:51.811Z,15.07
2019-04-23T18:15:35.386Z,14.90
2019-04-23T18:21:09.351Z,13.93
2019-04-23T18:23:32.094Z,16.07
2019-04-23T18:26:12.331Z,14.93
2019-04-23T18:29:04.536Z,14.77
2019-04-23T18:31:33.297Z,15.27
2019-04-23T18:34:16.355Z,15.23
2019-04-23T18:36:45.697Z,15.77
2019-04-23T18:39:23.842Z,15.90
2019-04-23T18:42:11.621Z,16.20
2019-04-23T18:44:38.316Z,15.20
2019-04-23T18:47:09.067Z,15.20
2019-04-23T18:52:29.480Z,16.63
2019-04-23T18:54:56.413Z,15.10
2019-04-23T18:57:27.385Z,15.20
2019-04-23T19:00:10.937Z,13.67
2019-04-23T19:03:04.145Z,15.20
2019-04-23T19:05:49.177Z,14.00
2019-04-23T19:08:51.477Z,14.70
2019-04-23T19:11:31.608Z,14.70
2019-04-23T19:13:47.751Z,15.23
2019-04-23T19:16:37.382Z,15.70
2019-04-23T19:19:01.403Z,14.87
2019-04-23T19:22:07.081Z,15.17
2019-04-23T19:24:12.655Z,15.33
2019-04-23T19:29:37.263Z,16.23
2019-04-23T19:31:58.295Z,14.97
2019-04-23T19:37:34.856Z,15.77
2019-04-23T19:42:17.639Z,16.80
2019-04-23T19:44:54.119Z,15.50
2019-04-23T19:47:45.887Z,17.33
2019-04-23T19:50:13.385Z,15.80
2019-04-23T19:53:04.485Z,17.00
2019-04-23T19:55:19.490Z,17.23
2019-04-23T19:58:08.539Z,17.83
2019-04-23T20:00:46.015Z,16.37
2019-04-23T20:03:26.401Z,16.67
2019-04-23T20:05:49.957Z,17.10
2019-04-23T20:08:34.005Z,18.47
2019-04-23T20:10:54.402Z,18.30
2019-04-23T20:13:40.832Z,17.20
2019-04-23T20:16:10.968Z,18.00
2019-04-23T20:24:04.670Z,19.20
2019-04-23T20:31:44.984Z,17.57
2019-04-23T20:32:09.092Z,16.73
2019-04-23T20:34:49.686Z,18.87
2019-04-23T20:37:03.242Z,17.90
2019-04-23T20:39:45.512Z,17.40
2019-04-23T20:47:22.998Z,19.27
2019-04-23T20:49:51.846Z,19.12
2019-04-23T20:52:33.892Z,18.10
2019-04-23T20:55:20.246Z,17.63
2019-04-23T20:58:03.619Z,18.23
2019-04-23T21:00:59.170Z,18.03
2019-04-23T21:09:10.172Z,18.30
2019-04-23T21:11:25.039Z,18.60
2019-04-23T21:14:24.049Z,18.23
2019-04-23T21:16:37.474Z,17.43
2019-04-23T21:19:13.769Z,19.80
2019-04-23T21:22:13.235Z,18.32
2019-04-23T21:24:47.369Z,20.87
2019-04-23T21:27:27.648Z,19.40
2019-04-23T21:30:01.915Z,20.43
2019-04-23T21:32:44.177Z,19.17
2019-04-23T21:41:09.205Z,18.25
2019-04-23T21:44:00.023Z,19.90
2019-04-23T21:46:15.352Z,18.87
2019-04-23T21:59:10.165Z,19.90
2019-04-23T22:01:59.309Z,20.57
2019-04-23T22:04:40.066Z,18.80
2019-04-23T22:06:52.939Z,18.60
2019-04-23T22:09:55.517Z,19.70
2019-04-23T22:12:08.764Z,19.23
2019-04-23T22:14:47.511Z,20.27
2019-04-23T22:17:27.216Z,20.77
2019-04-23T22:22:41.895Z,19.83
2019-04-23T22:25:22.065Z,19.57
2019-04-23T22:27:49.691Z,19.20
2019-04-23T22:30:24.684Z,19.55
2019-04-23T22:33:07.182Z,21.90
2019-04-23T22:35:35.942Z,21.23
2019-04-23T22:38:25.931Z,20.20
2019-04-23T22:40:41.520Z,21.77
2019-04-23T22:43:20.569Z,20.63
2019-04-23T22:46:02.906Z,19.53
2019-04-23T22:48:37.085Z,18.60
2019-04-23T22:51:11.024Z,19.13
2019-04-23T22:53:55.329Z,19.43
2019-04-23T22:56:20.870Z,19.33
2019-04-23T22:59:01.515Z,17.90
2019-04-23T23:01:42.254Z,19.67
2019-04-23T23:09:25.819Z,18.50
2019-04-23T23:14:47.234Z,19.35
2019-04-23T23:17:06.811Z,18.30
2019-04-23T23:22:20.086Z,18.47
2019-04-23T23:24:55.920Z,19.70
2019-04-23T23:27:26.698Z,18.23
2019-04-23T23:30:04.958Z,18.65
2019-04-23T23:32:41.147Z,18.43
2019-04-23T23:35:24.245Z,19.30
2019-04-23T23:37:56.382Z,19.50
2019-04-23T23:43:15.313Z,17.10
2019-04-23T23:45:35.251Z,16.90
2019-04-23T23:48:08.918Z,17.50
2019-04-23T23:53:24.890Z,18.70
2019-04-23T23:56:11.170Z,19.12
